Automated Weather Station

Lita, Tayabas, Quezon


Readings

as of August 06, 2016 01:00 AM
Wind Speed
1.4 mm
Rainfall Amount
0 mm
Rainfall Intensity
0 mm
Air Temperature
mm
Wind Direction
293 mm
Air Humidity
88.4 mm

Data Source: PREDICT (Advanced Science and Technology Institute)

12 HOUR DATA

PREVIOUS DATA

From
To
DateTime Wind Speed Rain Amount Rain Intensity Air Temperature Air Pressure Wind Direction Air Humidity
October 27, 2013 11:00 AM 5.3 0.01 mm 0 25.1 995.48 10 75
October 27, 2013 10:00 AM 5.7 0 mm 0 25.8 995.88 0 73.8
October 27, 2013 09:45 AM 4.3 0 mm 0 25.7 996.02 359 77.4
October 27, 2013 09:00 AM 4.6 0.01 mm 0 24.6 996.15 3 80.2
October 27, 2013 08:00 AM 5.8 0 mm 0 24.4 996.02 0 81.1
October 27, 2013 07:00 AM 3.3 0 mm 0 23.7 995.48 4 84.6
October 27, 2013 06:00 AM 2.6 0 mm 0 23.2 994.82 31 83.5
October 27, 2013 05:00 AM 4.9 0 mm 0 23.3 994.02 1 82
October 27, 2013 04:00 AM 5.1 0 mm 0 23 993.49 5 86.9
October 27, 2013 03:00 AM 5.5 0.03 mm 0 22.9 993.35 9 87.3
October 27, 2013 02:00 AM 5.6 0.01 mm 0 22.9 993.49 7 86.8
October 27, 2013 01:00 AM 4.6 0.82 mm 0 23.1 993.88 347 87.6
October 27, 2013 12:00 AM 4.2 0.4 mm 0 23 994.42 351 87.5
October 26, 2013 11:00 PM 2.7 0 mm 0 23.2 994.95 12 87.9
October 26, 2013 10:00 PM 4.5 0.01 mm 0 23.9 995.48 4 83
October 26, 2013 09:00 PM 5.1 0 mm 0 23.9 995.22 353 85.2
October 26, 2013 08:00 PM 4.2 0.02 mm 0.1 23.4 995.08 349 86.6
October 26, 2013 07:00 PM 4.6 0.1 mm 0 22.9 994.82 348 86.3
October 26, 2013 06:00 PM 3 0 mm 0 23.2 994.28 353 87.5
October 26, 2013 05:00 PM 3.2 0 mm 0 23.4 993.88 358 86.1
October 26, 2013 04:00 PM 0 0 mm 0 0 0 0 0
October 26, 2013 03:00 PM 6.5 0 mm 0 24.7 993.22 6 78.7
October 26, 2013 02:00 PM 6 0 mm 0 26.1 993.09 12 73.7
October 26, 2013 01:45 PM 6.3 0 mm 0 25.8 993.22 17 74.2
October 26, 2013 01:30 PM 7.8 0 mm 0 25.6 993.35 13 74.2
October 26, 2013 01:15 PM 7.4 0 mm 0 25.4 993.62 17 77.2
October 26, 2013 01:00 PM 5.5 0 mm 0 25.3 994.02 31 79.8
October 26, 2013 12:45 PM 8.2 0 mm 0 24.9 994.02 7 81.6
October 26, 2013 12:30 PM 10.6 4.57 mm 0 24.4 994.02 347 85.3
October 26, 2013 12:00 PM 3.2 9.21 mm 0.1 24.2 994.42 356 88.9